sensor_id;sensor_type;location;lat;lon;timestamp;P1;durP1;ratioP1;P2;durP2;ratioP2
67965;SDS011;54749;47.850;9.002;2023-04-29T00:01:30;10.60;;;6.05;;
67965;SDS011;54749;47.850;9.002;2023-04-29T00:03:57;10.20;;;5.07;;
67965;SDS011;54749;47.850;9.002;2023-04-29T00:06:25;10.30;;;5.45;;
67965;SDS011;54749;47.850;9.002;2023-04-29T00:08:52;15.13;;;5.90;;
67965;SDS011;54749;47.850;9.002;2023-04-29T00:11:19;15.30;;;8.40;;
67965;SDS011;54749;47.850;9.002;2023-04-29T00:13:46;16.33;;;8.18;;
67965;SDS011;54749;47.850;9.002;2023-04-29T00:16:14;14.07;;;8.10;;
67965;SDS011;54749;47.850;9.002;2023-04-29T00:18:41;14.75;;;8.48;;
67965;SDS011;54749;47.850;9.002;2023-04-29T00:21:08;13.90;;;7.13;;
67965;SDS011;54749;47.850;9.002;2023-04-29T00:23:35;11.43;;;6.82;;
67965;SDS011;54749;47.850;9.002;2023-04-29T00:26:02;12.23;;;6.97;;
67965;SDS011;54749;47.850;9.002;2023-04-29T00:28:29;13.60;;;6.10;;
67965;SDS011;54749;47.850;9.002;2023-04-29T00:30:57;11.50;;;6.13;;
67965;SDS011;54749;47.850;9.002;2023-04-29T00:33:25;13.10;;;6.85;;
67965;SDS011;54749;47.850;9.002;2023-04-29T00:35:53;10.63;;;5.68;;
67965;SDS011;54749;47.850;9.002;2023-04-29T00:38:19;11.88;;;5.97;;
67965;SDS011;54749;47.850;9.002;2023-04-29T00:40:47;11.17;;;5.37;;
67965;SDS011;54749;47.850;9.002;2023-04-29T00:43:14;9.48;;;5.20;;
67965;SDS011;54749;47.850;9.002;2023-04-29T00:45:42;10.35;;;5.20;;
67965;SDS011;54749;47.850;9.002;2023-04-29T00:48:09;10.20;;;5.28;;
67965;SDS011;54749;47.850;9.002;2023-04-29T00:50:37;12.63;;;6.60;;
67965;SDS011;54749;47.850;9.002;2023-04-29T00:53:04;12.80;;;6.40;;
67965;SDS011;54749;47.850;9.002;2023-04-29T00:55:31;11.93;;;6.95;;
67965;SDS011;54749;47.850;9.002;2023-04-29T00:57:59;12.88;;;7.15;;
67965;SDS011;54749;47.850;9.002;2023-04-29T01:00:28;12.25;;;6.90;;
67965;SDS011;54749;47.850;9.002;2023-04-29T01:02:56;11.65;;;6.40;;
67965;SDS011;54749;47.850;9.002;2023-04-29T01:05:26;13.27;;;7.00;;
67965;SDS011;54749;47.850;9.002;2023-04-29T01:11:07;11.80;;;6.30;;
67965;SDS011;54749;47.850;9.002;2023-04-29T01:13:43;9.45;;;5.22;;
67965;SDS011;54749;47.850;9.002;2023-04-29T01:16:20;12.75;;;6.60;;
67965;SDS011;54749;47.850;9.002;2023-04-29T01:18:57;10.40;;;6.17;;
67965;SDS011;54749;47.850;9.002;2023-04-29T01:21:32;18.50;;;6.63;;
67965;SDS011;54749;47.850;9.002;2023-04-29T01:24:11;11.13;;;5.43;;
67965;SDS011;54749;47.850;9.002;2023-04-29T01:26:42;8.85;;;4.88;;
67965;SDS011;54749;47.850;9.002;2023-04-29T01:29:39;9.10;;;4.75;;
67965;SDS011;54749;47.850;9.002;2023-04-29T01:32:12;10.47;;;5.37;;
67965;SDS011;54749;47.850;9.002;2023-04-29T01:37:20;9.68;;;5.30;;
67965;SDS011;54749;47.850;9.002;2023-04-29T01:40:04;9.57;;;5.30;;
67965;SDS011;54749;47.850;9.002;2023-04-29T01:42:57;9.95;;;5.68;;
67965;SDS011;54749;47.850;9.002;2023-04-29T01:45:28;14.20;;;6.30;;
67965;SDS011;54749;47.850;9.002;2023-04-29T01:47:58;11.70;;;6.10;;
67965;SDS011;54749;47.850;9.002;2023-04-29T01:50:26;11.40;;;5.30;;
67965;SDS011;54749;47.850;9.002;2023-04-29T01:52:57;9.57;;;5.40;;
67965;SDS011;54749;47.850;9.002;2023-04-29T01:55:24;11.27;;;5.80;;
67965;SDS011;54749;47.850;9.002;2023-04-29T01:58:07;10.03;;;5.23;;
67965;SDS011;54749;47.850;9.002;2023-04-29T02:00:44;8.27;;;4.60;;
67965;SDS011;54749;47.850;9.002;2023-04-29T02:03:12;9.18;;;4.82;;
67965;SDS011;54749;47.850;9.002;2023-04-29T02:05:43;9.82;;;5.00;;
67965;SDS011;54749;47.850;9.002;2023-04-29T02:08:11;10.15;;;4.95;;
67965;SDS011;54749;47.850;9.002;2023-04-29T02:10:50;10.13;;;5.63;;
67965;SDS011;54749;47.850;9.002;2023-04-29T02:13:32;9.75;;;5.43;;
67965;SDS011;54749;47.850;9.002;2023-04-29T02:16:06;10.02;;;5.30;;
67965;SDS011;54749;47.850;9.002;2023-04-29T02:18:35;9.05;;;5.22;;
67965;SDS011;54749;47.850;9.002;2023-04-29T02:21:03;8.95;;;5.07;;
67965;SDS011;54749;47.850;9.002;2023-04-29T02:23:33;12.23;;;6.97;;
67965;SDS011;54749;47.850;9.002;2023-04-29T02:26:01;9.90;;;5.25;;
67965;SDS011;54749;47.850;9.002;2023-04-29T02:28:34;9.90;;;5.30;;
67965;SDS011;54749;47.850;9.002;2023-04-29T02:31:02;8.18;;;4.95;;
67965;SDS011;54749;47.850;9.002;2023-04-29T02:33:30;9.40;;;5.45;;
67965;SDS011;54749;47.850;9.002;2023-04-29T02:35:58;8.93;;;4.97;;
67965;SDS011;54749;47.850;9.002;2023-04-29T02:38:25;8.73;;;4.45;;
67965;SDS011;54749;47.850;9.002;2023-04-29T02:40:53;8.25;;;4.70;;
67965;SDS011;54749;47.850;9.002;2023-04-29T02:43:20;7.95;;;4.57;;
67965;SDS011;54749;47.850;9.002;2023-04-29T02:45:47;9.07;;;4.47;;
67965;SDS011;54749;47.850;9.002;2023-04-29T02:48:15;8.63;;;4.03;;
67965;SDS011;54749;47.850;9.002;2023-04-29T02:50:43;7.93;;;4.38;;
67965;SDS011;54749;47.850;9.002;2023-04-29T02:53:10;8.60;;;4.40;;
67965;SDS011;54749;47.850;9.002;2023-04-29T02:55:37;7.97;;;4.05;;
67965;SDS011;54749;47.850;9.002;2023-04-29T02:58:08;7.45;;;4.03;;
67965;SDS011;54749;47.850;9.002;2023-04-29T03:00:35;8.33;;;3.70;;
67965;SDS011;54749;47.850;9.002;2023-04-29T03:03:02;6.43;;;3.28;;
67965;SDS011;54749;47.850;9.002;2023-04-29T03:05:30;6.85;;;3.80;;
67965;SDS011;54749;47.850;9.002;2023-04-29T03:07:57;7.80;;;3.95;;
67965;SDS011;54749;47.850;9.002;2023-04-29T03:10:24;6.30;;;3.45;;
67965;SDS011;54749;47.850;9.002;2023-04-29T03:12:52;7.30;;;3.60;;
67965;SDS011;54749;47.850;9.002;2023-04-29T03:15:19;7.15;;;3.58;;
67965;SDS011;54749;47.850;9.002;2023-04-29T03:17:47;7.18;;;3.70;;
67965;SDS011;54749;47.850;9.002;2023-04-29T03:20:14;8.70;;;3.97;;
67965;SDS011;54749;47.850;9.002;2023-04-29T03:22:41;8.43;;;4.43;;
67965;SDS011;54749;47.850;9.002;2023-04-29T03:25:08;7.70;;;4.10;;
67965;SDS011;54749;47.850;9.002;2023-04-29T03:27:38;9.93;;;5.25;;
67965;SDS011;54749;47.850;9.002;2023-04-29T03:30:06;10.77;;;5.28;;
67965;SDS011;54749;47.850;9.002;2023-04-29T03:32:38;15.93;;;7.65;;
67965;SDS011;54749;47.850;9.002;2023-04-29T03:35:06;15.32;;;7.38;;
67965;SDS011;54749;47.850;9.002;2023-04-29T03:37:47;16.70;;;6.93;;
67965;SDS011;54749;47.850;9.002;2023-04-29T03:40:20;15.88;;;7.00;;
67965;SDS011;54749;47.850;9.002;2023-04-29T03:42:48;15.57;;;7.32;;
67965;SDS011;54749;47.850;9.002;2023-04-29T03:45:16;15.90;;;7.13;;
67965;SDS011;54749;47.850;9.002;2023-04-29T03:47:44;14.52;;;6.82;;
67965;SDS011;54749;47.850;9.002;2023-04-29T03:50:11;13.67;;;7.00;;
67965;SDS011;54749;47.850;9.002;2023-04-29T03:52:39;12.65;;;6.28;;
67965;SDS011;54749;47.850;9.002;2023-04-29T03:55:10;13.75;;;6.95;;
67965;SDS011;54749;47.850;9.002;2023-04-29T03:57:39;16.00;;;7.70;;
67965;SDS011;54749;47.850;9.002;2023-04-29T04:00:09;15.38;;;6.93;;
67965;SDS011;54749;47.850;9.002;2023-04-29T04:02:39;15.33;;;7.70;;
67965;SDS011;54749;47.850;9.002;2023-04-29T04:05:08;19.27;;;8.35;;
67965;SDS011;54749;47.850;9.002;2023-04-29T04:07:40;17.83;;;7.57;;
67965;SDS011;54749;47.850;9.002;2023-04-29T04:10:42;15.60;;;7.72;;
67965;SDS011;54749;47.850;9.002;2023-04-29T04:13:23;19.00;;;8.60;;
67965;SDS011;54749;47.850;9.002;2023-04-29T04:15:50;17.80;;;8.37;;
67965;SDS011;54749;47.850;9.002;2023-04-29T04:18:18;19.30;;;8.82;;
67965;SDS011;54749;47.850;9.002;2023-04-29T04:20:45;16.13;;;7.50;;
67965;SDS011;54749;47.850;9.002;2023-04-29T04:23:13;15.80;;;7.68;;
67965;SDS011;54749;47.850;9.002;2023-04-29T04:25:47;16.67;;;7.32;;
67965;SDS011;54749;47.850;9.002;2023-04-29T04:28:34;17.97;;;8.13;;
67965;SDS011;54749;47.850;9.002;2023-04-29T04:31:11;16.50;;;7.63;;
67965;SDS011;54749;47.850;9.002;2023-04-29T04:33:42;18.23;;;8.25;;
67965;SDS011;54749;47.850;9.002;2023-04-29T04:36:10;22.23;;;10.27;;
67965;SDS011;54749;47.850;9.002;2023-04-29T04:38:37;19.83;;;8.60;;
67965;SDS011;54749;47.850;9.002;2023-04-29T04:41:09;19.43;;;9.10;;
67965;SDS011;54749;47.850;9.002;2023-04-29T04:43:38;18.90;;;8.20;;
67965;SDS011;54749;47.850;9.002;2023-04-29T04:46:14;21.08;;;8.30;;
67965;SDS011;54749;47.850;9.002;2023-04-29T04:49:00;16.70;;;7.20;;
67965;SDS011;54749;47.850;9.002;2023-04-29T04:51:28;18.88;;;8.43;;
67965;SDS011;54749;47.850;9.002;2023-04-29T04:53:55;21.07;;;9.30;;
67965;SDS011;54749;47.850;9.002;2023-04-29T04:56:23;19.48;;;9.43;;
67965;SDS011;54749;47.850;9.002;2023-04-29T04:58:51;19.15;;;8.73;;
67965;SDS011;54749;47.850;9.002;2023-04-29T05:01:18;20.08;;;8.75;;
67965;SDS011;54749;47.850;9.002;2023-04-29T05:03:45;20.38;;;9.68;;
67965;SDS011;54749;47.850;9.002;2023-04-29T05:06:13;17.93;;;8.13;;
67965;SDS011;54749;47.850;9.002;2023-04-29T05:08:44;20.10;;;9.45;;
67965;SDS011;54749;47.850;9.002;2023-04-29T05:11:16;21.70;;;9.93;;
67965;SDS011;54749;47.850;9.002;2023-04-29T05:13:48;16.33;;;7.57;;
67965;SDS011;54749;47.850;9.002;2023-04-29T05:16:16;16.63;;;7.78;;
67965;SDS011;54749;47.850;9.002;2023-04-29T05:18:46;16.10;;;7.70;;
67965;SDS011;54749;47.850;9.002;2023-04-29T05:21:14;23.48;;;9.95;;
67965;SDS011;54749;47.850;9.002;2023-04-29T05:23:44;19.08;;;9.80;;
67965;SDS011;54749;47.850;9.002;2023-04-29T05:26:11;16.10;;;7.70;;
67965;SDS011;54749;47.850;9.002;2023-04-29T05:28:39;14.30;;;7.13;;
67965;SDS011;54749;47.850;9.002;2023-04-29T05:31:07;14.43;;;8.23;;
67965;SDS011;54749;47.850;9.002;2023-04-29T05:33:36;15.00;;;7.20;;
67965;SDS011;54749;47.850;9.002;2023-04-29T05:36:03;14.07;;;7.72;;
67965;SDS011;54749;47.850;9.002;2023-04-29T05:38:31;13.32;;;6.95;;
67965;SDS011;54749;47.850;9.002;2023-04-29T05:41:03;11.57;;;6.13;;
67965;SDS011;54749;47.850;9.002;2023-04-29T05:43:33;12.17;;;6.20;;
67965;SDS011;54749;47.850;9.002;2023-04-29T05:46:02;14.82;;;7.18;;
67965;SDS011;54749;47.850;9.002;2023-04-29T05:48:29;13.35;;;6.43;;
67965;SDS011;54749;47.850;9.002;2023-04-29T05:50:56;13.10;;;6.65;;
67965;SDS011;54749;47.850;9.002;2023-04-29T05:53:24;12.63;;;6.25;;
67965;SDS011;54749;47.850;9.002;2023-04-29T05:55:51;13.87;;;7.03;;
67965;SDS011;54749;47.850;9.002;2023-04-29T05:58:20;13.30;;;7.05;;
67965;SDS011;54749;47.850;9.002;2023-04-29T06:00:47;13.18;;;7.40;;
67965;SDS011;54749;47.850;9.002;2023-04-29T06:03:20;11.32;;;5.93;;
67965;SDS011;54749;47.850;9.002;2023-04-29T06:05:54;10.27;;;5.55;;
67965;SDS011;54749;47.850;9.002;2023-04-29T06:08:41;13.10;;;6.80;;
67965;SDS011;54749;47.850;9.002;2023-04-29T06:11:22;13.73;;;6.75;;
67965;SDS011;54749;47.850;9.002;2023-04-29T06:13:49;13.40;;;6.60;;
67965;SDS011;54749;47.850;9.002;2023-04-29T06:16:16;15.00;;;8.00;;
67965;SDS011;54749;47.850;9.002;2023-04-29T06:18:47;16.17;;;7.45;;
67965;SDS011;54749;47.850;9.002;2023-04-29T06:21:14;13.67;;;7.27;;
67965;SDS011;54749;47.850;9.002;2023-04-29T06:23:42;12.65;;;7.32;;
67965;SDS011;54749;47.850;9.002;2023-04-29T06:26:14;12.88;;;6.80;;
67965;SDS011;54749;47.850;9.002;2023-04-29T06:28:42;12.88;;;7.18;;
67965;SDS011;54749;47.850;9.002;2023-04-29T06:31:09;15.23;;;7.43;;
67965;SDS011;54749;47.850;9.002;2023-04-29T06:33:37;11.97;;;6.10;;
67965;SDS011;54749;47.850;9.002;2023-04-29T06:36:04;9.95;;;6.13;;
67965;SDS011;54749;47.850;9.002;2023-04-29T06:39:00;9.90;;;5.68;;
67965;SDS011;54749;47.850;9.002;2023-04-29T06:41:50;11.82;;;6.43;;
67965;SDS011;54749;47.850;9.002;2023-04-29T06:44:41;9.90;;;5.45;;
67965;SDS011;54749;47.850;9.002;2023-04-29T06:47:37;10.77;;;5.93;;
67965;SDS011;54749;47.850;9.002;2023-04-29T06:50:10;10.45;;;5.78;;
67965;SDS011;54749;47.850;9.002;2023-04-29T06:52:37;9.90;;;5.38;;
67965;SDS011;54749;47.850;9.002;2023-04-29T06:55:04;11.02;;;6.10;;
67965;SDS011;54749;47.850;9.002;2023-04-29T06:57:32;10.27;;;5.65;;
67965;SDS011;54749;47.850;9.002;2023-04-29T07:00:00;9.47;;;5.07;;
67965;SDS011;54749;47.850;9.002;2023-04-29T07:02:27;7.95;;;4.15;;
67965;SDS011;54749;47.850;9.002;2023-04-29T07:04:54;7.80;;;4.53;;
67965;SDS011;54749;47.850;9.002;2023-04-29T07:07:21;9.57;;;4.70;;
67965;SDS011;54749;47.850;9.002;2023-04-29T07:09:49;7.88;;;4.53;;
67965;SDS011;54749;47.850;9.002;2023-04-29T07:12:19;6.87;;;4.20;;
67965;SDS011;54749;47.850;9.002;2023-04-29T07:14:46;8.52;;;4.60;;
67965;SDS011;54749;47.850;9.002;2023-04-29T07:17:13;6.72;;;3.88;;
67965;SDS011;54749;47.850;9.002;2023-04-29T07:19:41;6.72;;;4.07;;
67965;SDS011;54749;47.850;9.002;2023-04-29T07:22:09;5.50;;;3.00;;
67965;SDS011;54749;47.850;9.002;2023-04-29T07:24:36;5.90;;;2.97;;
67965;SDS011;54749;47.850;9.002;2023-04-29T07:27:03;5.95;;;3.22;;
67965;SDS011;54749;47.850;9.002;2023-04-29T07:29:31;6.63;;;4.10;;
67965;SDS011;54749;47.850;9.002;2023-04-29T07:31:59;6.30;;;3.97;;
67965;SDS011;54749;47.850;9.002;2023-04-29T07:34:26;8.32;;;5.93;;
67965;SDS011;54749;47.850;9.002;2023-04-29T07:36:54;8.90;;;6.40;;
67965;SDS011;54749;47.850;9.002;2023-04-29T07:39:22;8.48;;;5.10;;
67965;SDS011;54749;47.850;9.002;2023-04-29T07:41:53;6.88;;;3.95;;
67965;SDS011;54749;47.850;9.002;2023-04-29T07:44:21;6.10;;;3.53;;
67965;SDS011;54749;47.850;9.002;2023-04-29T07:46:48;6.75;;;3.20;;
67965;SDS011;54749;47.850;9.002;2023-04-29T07:49:15;6.80;;;3.37;;
67965;SDS011;54749;47.850;9.002;2023-04-29T07:51:42;7.95;;;2.88;;
67965;SDS011;54749;47.850;9.002;2023-04-29T07:54:10;5.90;;;3.10;;
67965;SDS011;54749;47.850;9.002;2023-04-29T07:56:37;6.70;;;3.38;;
67965;SDS011;54749;47.850;9.002;2023-04-29T07:59:06;6.13;;;3.58;;
67965;SDS011;54749;47.850;9.002;2023-04-29T08:01:33;4.60;;;2.70;;
67965;SDS011;54749;47.850;9.002;2023-04-29T08:04:00;5.00;;;2.35;;
67965;SDS011;54749;47.850;9.002;2023-04-29T08:06:30;5.80;;;2.95;;
67965;SDS011;54749;47.850;9.002;2023-04-29T08:08:58;6.00;;;2.70;;
67965;SDS011;54749;47.850;9.002;2023-04-29T08:11:26;5.05;;;2.35;;
67965;SDS011;54749;47.850;9.002;2023-04-29T08:13:54;5.20;;;2.20;;
67965;SDS011;54749;47.850;9.002;2023-04-29T08:16:22;4.18;;;1.90;;
67965;SDS011;54749;47.850;9.002;2023-04-29T08:18:52;4.38;;;2.03;;
67965;SDS011;54749;47.850;9.002;2023-04-29T08:21:19;3.55;;;1.70;;
67965;SDS011;54749;47.850;9.002;2023-04-29T08:23:47;5.07;;;2.60;;
67965;SDS011;54749;47.850;9.002;2023-04-29T08:26:14;5.50;;;3.40;;
67965;SDS011;54749;47.850;9.002;2023-04-29T08:28:42;6.22;;;2.92;;
67965;SDS011;54749;47.850;9.002;2023-04-29T08:31:15;4.30;;;2.58;;
67965;SDS011;54749;47.850;9.002;2023-04-29T08:33:46;4.82;;;2.45;;
67965;SDS011;54749;47.850;9.002;2023-04-29T08:36:14;4.72;;;2.53;;
67965;SDS011;54749;47.850;9.002;2023-04-29T08:38:41;5.10;;;2.50;;
67965;SDS011;54749;47.850;9.002;2023-04-29T08:41:08;6.13;;;2.42;;
67965;SDS011;54749;47.850;9.002;2023-04-29T08:43:36;4.57;;;1.95;;
67965;SDS011;54749;47.850;9.002;2023-04-29T08:46:03;4.22;;;2.10;;
67965;SDS011;54749;47.850;9.002;2023-04-29T08:48:31;4.32;;;2.10;;
67965;SDS011;54749;47.850;9.002;2023-04-29T08:50:58;4.07;;;1.63;;
67965;SDS011;54749;47.850;9.002;2023-04-29T08:53:27;5.15;;;2.13;;
67965;SDS011;54749;47.850;9.002;2023-04-29T08:55:55;5.63;;;2.38;;
67965;SDS011;54749;47.850;9.002;2023-04-29T08:58:24;7.28;;;2.20;;
67965;SDS011;54749;47.850;9.002;2023-04-29T09:00:54;6.85;;;2.25;;
67965;SDS011;54749;47.850;9.002;2023-04-29T09:03:26;4.53;;;1.73;;
67965;SDS011;54749;47.850;9.002;2023-04-29T09:06:03;3.85;;;1.67;;
67965;SDS011;54749;47.850;9.002;2023-04-29T09:08:32;4.07;;;1.65;;
67965;SDS011;54749;47.850;9.002;2023-04-29T09:10:59;5.40;;;1.80;;
67965;SDS011;54749;47.850;9.002;2023-04-29T09:13:30;4.60;;;1.70;;
67965;SDS011;54749;47.850;9.002;2023-04-29T09:15:58;4.17;;;1.50;;
67965;SDS011;54749;47.850;9.002;2023-04-29T09:21:11;3.72;;;1.30;;
67965;SDS011;54749;47.850;9.002;2023-04-29T09:23:49;3.95;;;1.30;;
67965;SDS011;54749;47.850;9.002;2023-04-29T09:26:18;3.50;;;1.40;;
67965;SDS011;54749;47.850;9.002;2023-04-29T09:28:46;4.30;;;1.30;;
67965;SDS011;54749;47.850;9.002;2023-04-29T09:31:25;3.20;;;1.27;;
67965;SDS011;54749;47.850;9.002;2023-04-29T09:33:54;4.55;;;1.30;;
67965;SDS011;54749;47.850;9.002;2023-04-29T09:36:36;4.80;;;1.10;;
67965;SDS011;54749;47.850;9.002;2023-04-29T09:39:16;3.40;;;1.23;;
67965;SDS011;54749;47.850;9.002;2023-04-29T09:44:25;6.63;;;1.30;;
67965;SDS011;54749;47.850;9.002;2023-04-29T09:46:57;7.57;;;1.73;;
67965;SDS011;54749;47.850;9.002;2023-04-29T09:49:26;6.63;;;1.80;;
67965;SDS011;54749;47.850;9.002;2023-04-29T09:51:59;7.68;;;2.00;;
67965;SDS011;54749;47.850;9.002;2023-04-29T09:54:28;4.83;;;1.30;;
67965;SDS011;54749;47.850;9.002;2023-04-29T09:56:57;4.03;;;1.25;;
67965;SDS011;54749;47.850;9.002;2023-04-29T09:59:25;3.65;;;1.48;;
67965;SDS011;54749;47.850;9.002;2023-04-29T10:01:53;4.65;;;1.60;;
67965;SDS011;54749;47.850;9.002;2023-04-29T10:04:23;4.28;;;1.60;;
67965;SDS011;54749;47.850;9.002;2023-04-29T10:06:54;4.47;;;1.60;;
67965;SDS011;54749;47.850;9.002;2023-04-29T10:09:22;3.85;;;1.52;;
67965;SDS011;54749;47.850;9.002;2023-04-29T10:11:50;5.68;;;1.27;;
67965;SDS011;54749;47.850;9.002;2023-04-29T10:14:19;6.10;;;1.20;;
67965;SDS011;54749;47.850;9.002;2023-04-29T10:19:24;4.87;;;1.47;;
67965;SDS011;54749;47.850;9.002;2023-04-29T10:22:06;4.32;;;1.30;;
67965;SDS011;54749;47.850;9.002;2023-04-29T10:24:35;5.38;;;1.40;;
67965;SDS011;54749;47.850;9.002;2023-04-29T10:27:07;4.32;;;1.90;;
67965;SDS011;54749;47.850;9.002;2023-04-29T10:29:38;3.42;;;1.60;;
67965;SDS011;54749;47.850;9.002;2023-04-29T10:32:06;4.13;;;1.30;;
67965;SDS011;54749;47.850;9.002;2023-04-29T10:34:36;3.80;;;1.52;;
67965;SDS011;54749;47.850;9.002;2023-04-29T10:37:07;4.70;;;1.70;;
67965;SDS011;54749;47.850;9.002;2023-04-29T10:42:46;3.58;;;1.20;;
67965;SDS011;54749;47.850;9.002;2023-04-29T10:50:29;4.05;;;1.70;;
67965;SDS011;54749;47.850;9.002;2023-04-29T10:53:00;3.95;;;1.10;;
67965;SDS011;54749;47.850;9.002;2023-04-29T10:55:28;3.10;;;1.20;;
67965;SDS011;54749;47.850;9.002;2023-04-29T10:57:56;3.00;;;1.20;;
67965;SDS011;54749;47.850;9.002;2023-04-29T11:00:27;3.35;;;1.20;;
67965;SDS011;54749;47.850;9.002;2023-04-29T11:02:55;4.10;;;1.30;;
67965;SDS011;54749;47.850;9.002;2023-04-29T11:05:36;4.05;;;1.38;;
67965;SDS011;54749;47.850;9.002;2023-04-29T11:10:52;4.90;;;1.63;;
67965;SDS011;54749;47.850;9.002;2023-04-29T11:13:29;3.42;;;1.08;;
67965;SDS011;54749;47.850;9.002;2023-04-29T11:18:31;3.88;;;1.30;;
67965;SDS011;54749;47.850;9.002;2023-04-29T11:23:34;5.57;;;1.27;;
67965;SDS011;54749;47.850;9.002;2023-04-29T11:26:02;4.28;;;1.52;;
67965;SDS011;54749;47.850;9.002;2023-04-29T11:28:30;4.32;;;1.23;;
67965;SDS011;54749;47.850;9.002;2023-04-29T11:30:58;3.10;;;1.10;;
67965;SDS011;54749;47.850;9.002;2023-04-29T11:33:26;3.17;;;1.10;;
67965;SDS011;54749;47.850;9.002;2023-04-29T11:35:53;4.23;;;1.10;;
67965;SDS011;54749;47.850;9.002;2023-04-29T11:38:25;6.60;;;1.67;;
67965;SDS011;54749;47.850;9.002;2023-04-29T11:40:55;3.50;;;1.23;;
67965;SDS011;54749;47.850;9.002;2023-04-29T11:43:24;4.05;;;1.40;;
67965;SDS011;54749;47.850;9.002;2023-04-29T11:45:51;5.55;;;1.42;;
67965;SDS011;54749;47.850;9.002;2023-04-29T11:48:23;3.57;;;1.40;;
67965;SDS011;54749;47.850;9.002;2023-04-29T11:50:52;3.50;;;1.10;;
67965;SDS011;54749;47.850;9.002;2023-04-29T11:53:22;3.55;;;1.30;;
67965;SDS011;54749;47.850;9.002;2023-04-29T11:55:53;3.97;;;1.52;;
67965;SDS011;54749;47.850;9.002;2023-04-29T11:58:22;3.30;;;1.20;;
67965;SDS011;54749;47.850;9.002;2023-04-29T12:00:50;3.83;;;1.40;;
67965;SDS011;54749;47.850;9.002;2023-04-29T12:03:20;4.00;;;1.20;;
67965;SDS011;54749;47.850;9.002;2023-04-29T12:05:51;5.57;;;1.30;;
67965;SDS011;54749;47.850;9.002;2023-04-29T12:08:20;3.55;;;1.00;;
67965;SDS011;54749;47.850;9.002;2023-04-29T12:10:55;3.28;;;1.20;;
67965;SDS011;54749;47.850;9.002;2023-04-29T12:13:25;4.83;;;1.40;;
67965;SDS011;54749;47.850;9.002;2023-04-29T12:15:55;4.45;;;1.17;;
67965;SDS011;54749;47.850;9.002;2023-04-29T12:18:24;3.17;;;1.00;;
67965;SDS011;54749;47.850;9.002;2023-04-29T12:20:53;3.53;;;1.02;;
67965;SDS011;54749;47.850;9.002;2023-04-29T12:23:22;4.05;;;0.90;;
67965;SDS011;54749;47.850;9.002;2023-04-29T12:25:54;3.13;;;1.00;;
67965;SDS011;54749;47.850;9.002;2023-04-29T12:28:23;3.65;;;1.00;;
67965;SDS011;54749;47.850;9.002;2023-04-29T12:30:51;3.53;;;1.02;;
67965;SDS011;54749;47.850;9.002;2023-04-29T12:33:23;3.47;;;1.02;;
67965;SDS011;54749;47.850;9.002;2023-04-29T12:35:55;3.33;;;1.00;;
67965;SDS011;54749;47.850;9.002;2023-04-29T12:38:26;3.00;;;1.03;;
67965;SDS011;54749;47.850;9.002;2023-04-29T12:40:54;2.92;;;0.98;;
67965;SDS011;54749;47.850;9.002;2023-04-29T12:43:29;2.90;;;0.90;;
67965;SDS011;54749;47.850;9.002;2023-04-29T12:46:04;2.88;;;1.10;;
67965;SDS011;54749;47.850;9.002;2023-04-29T12:48:37;2.92;;;1.00;;
67965;SDS011;54749;47.850;9.002;2023-04-29T12:51:12;4.10;;;0.80;;
67965;SDS011;54749;47.850;9.002;2023-04-29T12:53:39;2.90;;;0.90;;
67965;SDS011;54749;47.850;9.002;2023-04-29T12:56:07;3.05;;;0.90;;
67965;SDS011;54749;47.850;9.002;2023-04-29T12:58:34;3.60;;;1.10;;
67965;SDS011;54749;47.850;9.002;2023-04-29T13:01:01;3.97;;;1.10;;
67965;SDS011;54749;47.850;9.002;2023-04-29T13:03:29;2.97;;;1.10;;
67965;SDS011;54749;47.850;9.002;2023-04-29T13:05:56;4.47;;;1.00;;
67965;SDS011;54749;47.850;9.002;2023-04-29T13:08:25;3.72;;;1.00;;
67965;SDS011;54749;47.850;9.002;2023-04-29T13:10:53;4.35;;;1.00;;
67965;SDS011;54749;47.850;9.002;2023-04-29T13:13:20;3.70;;;1.08;;
67965;SDS011;54749;47.850;9.002;2023-04-29T13:15:47;3.57;;;1.00;;
67965;SDS011;54749;47.850;9.002;2023-04-29T13:18:15;3.78;;;0.93;;
67965;SDS011;54749;47.850;9.002;2023-04-29T13:20:42;7.18;;;1.50;;
67965;SDS011;54749;47.850;9.002;2023-04-29T13:23:10;5.15;;;0.90;;
67965;SDS011;54749;47.850;9.002;2023-04-29T13:25:40;5.03;;;1.10;;
67965;SDS011;54749;47.850;9.002;2023-04-29T13:28:07;3.93;;;1.20;;
67965;SDS011;54749;47.850;9.002;2023-04-29T13:30:34;3.95;;;1.40;;
67965;SDS011;54749;47.850;9.002;2023-04-29T13:33:02;3.17;;;1.00;;
67965;SDS011;54749;47.850;9.002;2023-04-29T13:35:37;3.72;;;1.20;;
67965;SDS011;54749;47.850;9.002;2023-04-29T13:38:06;4.05;;;1.45;;
67965;SDS011;54749;47.850;9.002;2023-04-29T13:40:34;3.67;;;1.00;;
67965;SDS011;54749;47.850;9.002;2023-04-29T13:43:07;3.80;;;1.05;;
67965;SDS011;54749;47.850;9.002;2023-04-29T13:45:37;3.38;;;1.30;;
67965;SDS011;54749;47.850;9.002;2023-04-29T13:48:09;3.45;;;1.30;;
67965;SDS011;54749;47.850;9.002;2023-04-29T13:50:56;3.10;;;1.20;;
67965;SDS011;54749;47.850;9.002;2023-04-29T13:53:43;4.00;;;1.10;;
67965;SDS011;54749;47.850;9.002;2023-04-29T13:56:30;3.10;;;1.13;;
67965;SDS011;54749;47.850;9.002;2023-04-29T13:59:01;3.40;;;1.10;;
67965;SDS011;54749;47.850;9.002;2023-04-29T14:01:47;5.93;;;1.60;;
67965;SDS011;54749;47.850;9.002;2023-04-29T14:04:19;3.50;;;1.10;;
67965;SDS011;54749;47.850;9.002;2023-04-29T14:06:47;4.97;;;1.10;;
67965;SDS011;54749;47.850;9.002;2023-04-29T14:09:14;2.70;;;0.90;;
67965;SDS011;54749;47.850;9.002;2023-04-29T14:11:41;3.78;;;1.10;;
67965;SDS011;54749;47.850;9.002;2023-04-29T14:14:09;4.25;;;1.02;;
67965;SDS011;54749;47.850;9.002;2023-04-29T14:16:36;5.30;;;2.50;;
67965;SDS011;54749;47.850;9.002;2023-04-29T14:19:03;3.73;;;1.60;;
67965;SDS011;54749;47.850;9.002;2023-04-29T14:21:30;3.25;;;1.30;;
67965;SDS011;54749;47.850;9.002;2023-04-29T14:23:59;3.60;;;1.00;;
67965;SDS011;54749;47.850;9.002;2023-04-29T14:26:30;2.90;;;1.10;;
67965;SDS011;54749;47.850;9.002;2023-04-29T14:28:58;4.82;;;3.00;;
67965;SDS011;54749;47.850;9.002;2023-04-29T14:31:26;18.43;;;15.63;;
67965;SDS011;54749;47.850;9.002;2023-04-29T14:33:56;12.40;;;10.65;;
67965;SDS011;54749;47.850;9.002;2023-04-29T14:36:23;8.00;;;6.20;;
67965;SDS011;54749;47.850;9.002;2023-04-29T14:38:52;4.30;;;1.90;;
67965;SDS011;54749;47.850;9.002;2023-04-29T14:41:19;3.83;;;1.50;;
67965;SDS011;54749;47.850;9.002;2023-04-29T14:43:49;3.57;;;1.20;;
67965;SDS011;54749;47.850;9.002;2023-04-29T14:46:16;3.05;;;1.25;;
67965;SDS011;54749;47.850;9.002;2023-04-29T14:48:44;5.18;;;1.50;;
67965;SDS011;54749;47.850;9.002;2023-04-29T14:51:11;3.20;;;1.30;;
67965;SDS011;54749;47.850;9.002;2023-04-29T14:53:39;4.68;;;1.40;;
67965;SDS011;54749;47.850;9.002;2023-04-29T14:56:06;3.00;;;1.17;;
67965;SDS011;54749;47.850;9.002;2023-04-29T14:58:34;3.45;;;1.30;;
67965;SDS011;54749;47.850;9.002;2023-04-29T15:01:01;3.47;;;1.38;;
67965;SDS011;54749;47.850;9.002;2023-04-29T15:03:28;3.85;;;1.55;;
67965;SDS011;54749;47.850;9.002;2023-04-29T15:05:55;4.63;;;1.98;;
67965;SDS011;54749;47.850;9.002;2023-04-29T15:08:24;4.07;;;1.40;;
67965;SDS011;54749;47.850;9.002;2023-04-29T15:10:51;5.10;;;1.55;;
67965;SDS011;54749;47.850;9.002;2023-04-29T15:13:18;3.83;;;1.58;;
67965;SDS011;54749;47.850;9.002;2023-04-29T15:15:45;4.05;;;1.30;;
67965;SDS011;54749;47.850;9.002;2023-04-29T15:18:13;4.65;;;1.70;;
67965;SDS011;54749;47.850;9.002;2023-04-29T15:20:40;4.10;;;1.70;;
67965;SDS011;54749;47.850;9.002;2023-04-29T15:23:07;4.07;;;1.50;;
67965;SDS011;54749;47.850;9.002;2023-04-29T15:25:34;3.38;;;1.33;;
67965;SDS011;54749;47.850;9.002;2023-04-29T15:28:02;4.20;;;1.48;;
67965;SDS011;54749;47.850;9.002;2023-04-29T15:30:30;5.40;;;1.50;;